createdAt,value
2024-03-19T00:00:39.491Z,24.03
2024-03-19T00:01:43.418Z,24.03
2024-03-19T00:02:39.602Z,24.04
2024-03-19T00:03:39.608Z,24.05
2024-03-19T00:04:39.614Z,24.03
2024-03-19T00:05:39.626Z,24.00
2024-03-19T00:06:39.612Z,24.01
2024-03-19T00:07:39.636Z,24.00
2024-03-19T00:08:39.606Z,24.01
2024-03-19T00:09:39.626Z,24.04
2024-03-19T00:10:39.625Z,24.01
2024-03-19T00:11:39.617Z,24.04
2024-03-19T00:12:39.622Z,24.01
2024-03-19T00:13:39.631Z,24.00
2024-03-19T00:14:39.634Z,24.01
2024-03-19T00:15:39.648Z,24.01
2024-03-19T00:16:39.653Z,24.00
2024-03-19T00:17:39.669Z,24.01
2024-03-19T00:18:39.671Z,24.00
2024-03-19T00:19:39.666Z,23.99
2024-03-19T00:20:39.681Z,24.01
2024-03-19T00:21:39.683Z,24.03
2024-03-19T00:22:39.681Z,24.00
2024-03-19T00:23:39.702Z,24.01
2024-03-19T00:24:39.699Z,23.99
2024-03-19T00:25:39.705Z,24.01
2024-03-19T00:26:39.707Z,24.00
2024-03-19T00:27:39.681Z,24.00
2024-03-19T00:28:39.674Z,24.00
2024-03-19T00:29:39.698Z,23.99
2024-03-19T00:30:39.778Z,24.00
2024-03-19T00:31:39.900Z,23.99
2024-03-19T00:32:39.995Z,24.00
2024-03-19T00:33:40.090Z,23.99
2024-03-19T00:34:40.212Z,24.00
2024-03-19T00:35:40.326Z,23.97
2024-03-19T00:36:40.442Z,23.96
2024-03-19T00:37:40.560Z,24.01
2024-03-19T00:38:40.659Z,23.99
2024-03-19T00:39:40.773Z,23.99
2024-03-19T00:40:40.879Z,23.97
2024-03-19T00:41:40.993Z,23.99
2024-03-19T00:42:41.102Z,23.97
2024-03-19T00:43:41.212Z,23.96
2024-03-19T00:44:41.333Z,23.96
2024-03-19T00:45:41.479Z,23.99
2024-03-19T00:46:41.555Z,23.97
2024-03-19T00:47:41.698Z,23.97
2024-03-19T00:48:41.809Z,23.97
2024-03-19T00:49:41.926Z,23.96
2024-03-19T00:50:42.023Z,23.94
2024-03-19T00:51:42.135Z,23.96
2024-03-19T00:52:42.245Z,23.96
2024-03-19T00:53:42.362Z,23.96
2024-03-19T00:54:42.454Z,23.94
2024-03-19T00:55:42.576Z,23.94
2024-03-19T00:56:42.683Z,23.94
2024-03-19T00:57:42.785Z,23.96
2024-03-19T00:58:42.904Z,23.93
2024-03-19T00:59:43.016Z,23.93
2024-03-19T01:00:43.149Z,23.94
2024-03-19T01:01:43.239Z,23.94
2024-03-19T01:02:43.340Z,23.94
2024-03-19T01:03:43.455Z,23.91
2024-03-19T01:04:44.586Z,23.91
2024-03-19T01:05:43.685Z,23.91
2024-03-19T01:06:43.803Z,23.91
2024-03-19T01:07:43.923Z,23.93
2024-03-19T01:08:44.032Z,23.90
2024-03-19T01:09:44.160Z,23.91
2024-03-19T01:10:44.249Z,23.91
2024-03-19T01:11:44.390Z,23.93
2024-03-19T01:12:44.475Z,23.90
2024-03-19T01:13:44.586Z,23.90
2024-03-19T01:14:44.682Z,23.90
2024-03-19T01:15:44.820Z,23.93
2024-03-19T01:16:44.921Z,23.90
2024-03-19T01:17:45.025Z,23.88
2024-03-19T01:18:45.187Z,23.91
2024-03-19T01:19:45.290Z,23.91
2024-03-19T01:20:45.374Z,23.90
2024-03-19T01:21:45.507Z,23.90
2024-03-19T01:22:45.636Z,23.88
2024-03-19T01:23:45.741Z,23.90
2024-03-19T01:24:45.849Z,23.90
2024-03-19T01:25:45.953Z,23.91
2024-03-19T01:26:46.063Z,23.88
2024-03-19T01:27:46.169Z,23.88
2024-03-19T01:28:46.288Z,23.87
2024-03-19T01:29:46.394Z,23.90
2024-03-19T01:30:46.505Z,23.87
2024-03-19T01:31:46.615Z,23.90
2024-03-19T01:32:46.720Z,23.87
2024-03-19T01:33:46.859Z,23.90
2024-03-19T01:34:46.979Z,23.88
2024-03-19T01:35:47.065Z,23.87
2024-03-19T01:36:47.153Z,23.87
2024-03-19T01:37:47.372Z,23.87
2024-03-19T01:38:47.403Z,23.87
2024-03-19T01:39:47.517Z,23.88
2024-03-19T01:40:47.624Z,23.87
2024-03-19T01:41:47.752Z,23.87
2024-03-19T01:42:47.851Z,23.88
2024-03-19T01:43:47.963Z,23.87
2024-03-19T01:44:48.076Z,23.85
2024-03-19T01:45:48.212Z,23.84
2024-03-19T01:46:48.286Z,23.85
2024-03-19T01:47:48.399Z,23.87
2024-03-19T01:48:48.509Z,23.84
2024-03-19T01:49:48.620Z,23.85
2024-03-19T01:50:48.724Z,23.87
2024-03-19T01:51:48.864Z,23.85
2024-03-19T01:52:48.957Z,23.84
2024-03-19T01:53:49.090Z,23.84
2024-03-19T01:54:49.181Z,23.84
2024-03-19T01:55:49.304Z,23.83
2024-03-19T01:56:49.444Z,23.85
2024-03-19T01:57:49.549Z,23.84
2024-03-19T01:58:49.621Z,23.84
2024-03-19T01:59:49.747Z,23.84
2024-03-19T02:00:49.852Z,23.84
2024-03-19T02:01:49.959Z,23.83
2024-03-19T02:02:50.080Z,23.83
2024-03-19T02:03:50.179Z,23.81
2024-03-19T02:04:50.290Z,23.84
2024-03-19T02:05:50.392Z,23.83
2024-03-19T02:06:50.484Z,23.83
2024-03-19T02:07:50.613Z,23.83
2024-03-19T02:08:50.691Z,23.81
2024-03-19T02:09:50.834Z,23.81
2024-03-19T02:10:50.919Z,23.83
2024-03-19T02:11:51.037Z,23.81
2024-03-19T02:12:51.139Z,23.84
2024-03-19T02:13:51.304Z,23.83
2024-03-19T02:14:51.408Z,23.80
2024-03-19T02:15:51.523Z,23.81
2024-03-19T02:16:51.640Z,23.83
2024-03-19T02:17:51.744Z,23.80
2024-03-19T02:18:51.857Z,23.83
2024-03-19T02:19:52.087Z,23.81
2024-03-19T02:20:52.070Z,23.83
2024-03-19T02:21:52.205Z,23.81
2024-03-19T02:22:52.317Z,23.80
2024-03-19T02:23:52.461Z,23.83
2024-03-19T02:24:52.536Z,23.81
2024-03-19T02:25:52.650Z,23.79
2024-03-19T02:26:52.771Z,23.80
2024-03-19T02:27:52.875Z,23.80
2024-03-19T02:28:52.983Z,23.79
2024-03-19T02:29:53.086Z,23.79
2024-03-19T02:30:53.728Z,23.79
2024-03-19T02:31:53.306Z,23.80
2024-03-19T02:32:53.385Z,23.77
2024-03-19T02:33:53.498Z,23.79
2024-03-19T02:34:53.597Z,23.79
2024-03-19T02:35:53.712Z,23.77
2024-03-19T02:36:53.804Z,23.77
2024-03-19T02:37:53.924Z,23.79
2024-03-19T02:38:54.039Z,23.79
2024-03-19T02:39:54.162Z,23.77
2024-03-19T02:40:59.260Z,23.79
2024-03-19T02:41:54.264Z,23.79
2024-03-19T02:42:54.254Z,23.76
2024-03-19T02:43:54.258Z,23.76
2024-03-19T02:44:54.272Z,23.77
2024-03-19T02:45:54.272Z,23.77
2024-03-19T02:46:54.257Z,23.76
2024-03-19T02:47:54.294Z,23.76
2024-03-19T02:48:54.354Z,23.77
2024-03-19T02:49:54.476Z,23.76
2024-03-19T02:50:54.585Z,23.76
2024-03-19T02:51:54.732Z,23.74
2024-03-19T02:52:54.835Z,23.77
2024-03-19T02:53:54.968Z,23.76
2024-03-19T02:54:55.042Z,23.76
2024-03-19T02:55:55.147Z,23.74
2024-03-19T02:56:55.246Z,23.76
2024-03-19T02:57:55.357Z,23.76
2024-03-19T02:58:55.465Z,23.73
2024-03-19T02:59:55.587Z,23.76
2024-03-19T03:00:55.687Z,23.73
2024-03-19T03:01:55.764Z,23.74
2024-03-19T03:02:55.859Z,23.77
2024-03-19T03:03:55.962Z,23.73
2024-03-19T03:04:56.084Z,23.76
2024-03-19T03:05:56.202Z,23.80
2024-03-19T03:06:56.296Z,23.79
2024-03-19T03:07:56.406Z,23.81
2024-03-19T03:08:56.516Z,23.83
2024-03-19T03:09:56.641Z,23.83
2024-03-19T03:10:56.739Z,23.85
2024-03-19T03:11:56.857Z,23.88
2024-03-19T03:12:56.966Z,23.90
2024-03-19T03:13:57.077Z,23.94
2024-03-19T03:14:57.180Z,23.96
2024-03-19T03:15:57.282Z,23.97
2024-03-19T03:16:57.390Z,24.00
2024-03-19T03:17:57.587Z,24.05
2024-03-19T03:18:57.607Z,24.07
2024-03-19T03:19:57.694Z,24.08
2024-03-19T03:20:57.773Z,24.10
2024-03-19T03:21:57.877Z,24.14
2024-03-19T03:22:57.951Z,24.15
2024-03-19T03:23:58.040Z,24.17
2024-03-19T03:24:58.127Z,24.24
2024-03-19T03:25:58.208Z,24.24
2024-03-19T03:27:05.838Z,24.22
2024-03-19T03:28:05.840Z,24.25
2024-03-19T03:29:05.835Z,24.31
2024-03-19T03:30:05.840Z,24.31
2024-03-19T03:31:05.824Z,24.32
2024-03-19T03:32:05.851Z,24.36
2024-03-19T03:33:05.850Z,24.39
2024-03-19T03:34:05.844Z,24.42
2024-03-19T03:35:05.842Z,24.43
2024-03-19T03:36:05.848Z,24.44
2024-03-19T03:37:11.964Z,24.48
2024-03-19T03:38:06.851Z,24.49
2024-03-19T03:39:05.841Z,24.49
2024-03-19T03:40:05.864Z,24.53
2024-03-19T03:41:05.854Z,24.55
2024-03-19T03:42:05.870Z,24.56
2024-03-19T03:43:07.025Z,24.58
2024-03-19T03:44:05.864Z,24.59
2024-03-19T03:45:05.862Z,24.60
2024-03-19T03:46:05.854Z,24.60
2024-03-19T03:47:05.857Z,24.62
2024-03-19T03:48:05.877Z,24.64
2024-03-19T03:49:05.955Z,24.64
2024-03-19T03:50:05.892Z,24.67
2024-03-19T03:51:05.889Z,24.70
2024-03-19T03:52:05.910Z,24.70
2024-03-19T03:53:05.902Z,24.71
2024-03-19T03:54:05.905Z,24.73
2024-03-19T03:55:05.904Z,24.70
2024-03-19T03:56:05.890Z,24.73
2024-03-19T03:57:05.890Z,24.74
2024-03-19T03:58:05.898Z,24.76
2024-03-19T03:59:05.896Z,24.77
2024-03-19T04:00:05.885Z,24.77
2024-03-19T04:01:05.893Z,24.77
2024-03-19T04:02:05.883Z,24.78
2024-03-19T04:03:05.896Z,24.80
2024-03-19T04:04:05.880Z,24.81
2024-03-19T04:05:05.889Z,24.81
2024-03-19T04:06:05.886Z,24.81
2024-03-19T04:07:05.896Z,24.81
2024-03-19T04:08:07.901Z,24.83
2024-03-19T04:09:05.909Z,24.81
2024-03-19T04:10:05.883Z,24.81
2024-03-19T04:11:05.908Z,24.84
2024-03-19T04:12:05.915Z,24.83
2024-03-19T04:13:05.894Z,24.85
2024-03-19T04:14:05.896Z,24.87
2024-03-19T04:15:05.912Z,24.87
2024-03-19T04:16:05.900Z,24.88
2024-03-19T04:17:05.973Z,24.90
2024-03-19T04:18:05.907Z,24.90
2024-03-19T04:19:05.900Z,24.90
2024-03-19T04:20:05.904Z,24.91
2024-03-19T04:21:05.898Z,24.93
2024-03-19T04:22:05.886Z,24.94
2024-03-19T04:23:05.995Z,24.95
2024-03-19T04:24:05.902Z,24.94
2024-03-19T04:25:05.909Z,24.97
2024-03-19T04:26:05.913Z,24.97
2024-03-19T04:27:05.920Z,24.98
2024-03-19T04:28:05.948Z,24.99
2024-03-19T04:29:05.970Z,24.97
2024-03-19T04:30:05.953Z,24.99
2024-03-19T04:31:05.979Z,25.01
2024-03-19T04:32:05.960Z,24.99
2024-03-19T04:33:05.968Z,25.01
2024-03-19T04:34:05.965Z,25.02
2024-03-19T04:35:05.981Z,25.02
2024-03-19T04:36:05.981Z,25.02
2024-03-19T04:37:05.974Z,25.04
2024-03-19T04:38:05.960Z,25.02
2024-03-19T04:39:05.970Z,25.05
2024-03-19T04:40:05.978Z,25.07
2024-03-19T04:41:05.973Z,25.05
2024-03-19T04:42:05.979Z,25.07
2024-03-19T04:43:05.983Z,25.04
2024-03-19T04:44:06.144Z,25.07
2024-03-19T04:45:06.146Z,25.08
2024-03-19T04:46:06.265Z,25.07
2024-03-19T04:47:06.370Z,25.09
2024-03-19T04:48:06.430Z,25.08
2024-03-19T04:49:06.537Z,25.08
2024-03-19T04:50:06.657Z,25.08
2024-03-19T04:51:06.747Z,25.09
2024-03-19T04:52:10.590Z,25.07
2024-03-19T04:53:06.832Z,25.08
2024-03-19T04:54:06.819Z,25.09
2024-03-19T04:55:06.874Z,25.07
2024-03-19T04:56:06.841Z,25.07
2024-03-19T04:57:06.839Z,25.07
2024-03-19T04:58:06.854Z,25.08
2024-03-19T04:59:06.907Z,25.08
2024-03-19T05:00:06.860Z,25.05
2024-03-19T05:01:06.834Z,25.08
2024-03-19T05:02:06.840Z,25.08
2024-03-19T05:03:06.868Z,25.08
2024-03-19T05:04:51.798Z,25.02
2024-03-19T05:05:51.802Z,25.05
2024-03-19T05:06:51.809Z,25.04
2024-03-19T05:07:51.777Z,25.04
2024-03-19T05:08:51.822Z,25.04
2024-03-19T05:09:51.822Z,25.05
2024-03-19T05:10:51.831Z,25.05
2024-03-19T05:11:51.824Z,25.04
2024-03-19T05:12:51.813Z,25.02
2024-03-19T05:13:51.857Z,25.04
2024-03-19T05:14:51.919Z,25.02
2024-03-19T05:15:52.018Z,25.02
2024-03-19T05:16:52.122Z,25.04
2024-03-19T05:17:52.193Z,25.04
2024-03-19T05:18:52.297Z,25.02
2024-03-19T05:19:52.390Z,25.01
2024-03-19T05:20:52.462Z,25.05
2024-03-19T05:21:52.574Z,25.02
2024-03-19T05:22:52.633Z,25.04
2024-03-19T05:23:52.723Z,25.02
2024-03-19T05:24:52.808Z,25.02
2024-03-19T05:25:52.909Z,25.04
2024-03-19T05:26:52.990Z,25.02
2024-03-19T05:27:53.073Z,25.04
2024-03-19T05:28:53.169Z,25.02
2024-03-19T05:29:53.250Z,24.99
2024-03-19T05:30:53.349Z,25.02
2024-03-19T05:31:53.457Z,25.02
2024-03-19T05:32:53.556Z,24.99
2024-03-19T05:33:53.620Z,25.01
2024-03-19T05:34:55.528Z,25.02
2024-03-19T05:35:53.710Z,25.05
2024-03-19T05:36:53.710Z,25.05
2024-03-19T05:37:53.751Z,25.02
2024-03-19T05:38:53.769Z,25.04
2024-03-19T05:39:53.817Z,25.04
2024-03-19T05:40:53.848Z,25.05
2024-03-19T05:41:53.965Z,25.04
2024-03-19T05:42:54.056Z,25.05
2024-03-19T05:43:57.060Z,25.05
2024-03-19T05:44:54.113Z,25.07
2024-03-19T05:45:54.101Z,25.04
2024-03-19T05:46:54.122Z,25.08
2024-03-19T05:47:54.124Z,25.05
2024-03-19T05:48:54.104Z,25.07
2024-03-19T05:49:54.095Z,25.07
2024-03-19T05:50:54.100Z,25.08
2024-03-19T05:51:54.105Z,25.07
2024-03-19T05:52:54.110Z,25.07
2024-03-19T05:53:54.117Z,25.09
2024-03-19T05:54:54.173Z,25.08
2024-03-19T05:55:54.126Z,25.05
2024-03-19T05:56:54.102Z,25.08
2024-03-19T05:57:54.103Z,25.09
2024-03-19T05:58:54.163Z,25.08
2024-03-19T05:59:54.114Z,25.09
2024-03-19T06:00:54.113Z,25.07
2024-03-19T06:01:54.122Z,25.09
2024-03-19T06:02:54.131Z,25.09
2024-03-19T06:03:54.132Z,25.08
2024-03-19T06:04:54.136Z,25.08
2024-03-19T06:05:54.106Z,25.07
2024-03-19T06:06:54.121Z,25.08
2024-03-19T06:07:54.107Z,25.09
2024-03-19T06:08:54.118Z,25.11
2024-03-19T06:09:54.123Z,25.09
2024-03-19T06:10:54.130Z,25.09
2024-03-19T06:11:54.127Z,25.09
2024-03-19T06:12:54.118Z,25.09
2024-03-19T06:13:54.137Z,25.11
2024-03-19T06:14:54.121Z,25.11
2024-03-19T06:15:54.114Z,25.09
2024-03-19T06:16:54.169Z,25.11
2024-03-19T06:17:54.226Z,25.12
2024-03-19T06:18:54.327Z,25.12
2024-03-19T06:19:54.393Z,25.09
2024-03-19T06:20:54.504Z,25.11
2024-03-19T06:21:54.606Z,25.12
2024-03-19T06:22:54.693Z,25.12
2024-03-19T06:23:54.791Z,25.11
2024-03-19T06:24:54.882Z,25.11
2024-03-19T06:25:54.966Z,25.12
2024-03-19T06:26:55.057Z,25.11
2024-03-19T06:27:55.148Z,25.12
2024-03-19T06:28:55.236Z,25.12
2024-03-19T06:29:55.332Z,25.11
2024-03-19T06:30:55.445Z,25.14
2024-03-19T06:31:55.508Z,25.12
2024-03-19T06:32:55.623Z,25.12
2024-03-19T06:33:55.719Z,25.14
2024-03-19T06:34:55.813Z,25.11
2024-03-19T06:35:55.913Z,25.14
2024-03-19T06:36:55.995Z,25.14
2024-03-19T06:37:56.071Z,25.15
2024-03-19T06:38:56.169Z,25.15
2024-03-19T06:39:56.253Z,25.14
2024-03-19T06:40:56.350Z,25.15
2024-03-19T06:41:56.436Z,25.14
2024-03-19T06:42:56.544Z,25.14
2024-03-19T06:43:56.610Z,25.12
2024-03-19T06:44:56.736Z,25.15
2024-03-19T06:45:56.795Z,25.14
2024-03-19T06:46:58.369Z,25.14
2024-03-19T06:47:56.939Z,25.15
2024-03-19T06:48:56.993Z,25.15
2024-03-19T06:49:57.057Z,25.17
2024-03-19T06:50:57.025Z,25.17
2024-03-19T06:51:57.051Z,25.15
2024-03-19T06:52:57.078Z,25.15
2024-03-19T06:53:57.284Z,25.15
2024-03-19T06:54:59.168Z,25.15
2024-03-19T06:55:57.245Z,25.15
2024-03-19T06:56:57.255Z,25.17
2024-03-19T06:57:57.357Z,25.18
2024-03-19T06:58:57.287Z,25.19
2024-03-19T06:59:57.279Z,25.19
2024-03-19T07:00:57.280Z,25.18
2024-03-19T07:01:57.262Z,25.18
2024-03-19T07:02:58.286Z,25.18
2024-03-19T07:04:06.699Z,25.19
2024-03-19T07:04:58.286Z,25.18
2024-03-19T07:05:57.269Z,25.21
2024-03-19T07:06:57.275Z,25.19
2024-03-19T07:07:57.281Z,25.21
2024-03-19T07:08:57.295Z,25.21
2024-03-19T07:09:57.320Z,25.18
2024-03-19T07:10:57.285Z,25.21
2024-03-19T07:11:57.280Z,25.22
2024-03-19T07:12:57.285Z,25.21
2024-03-19T07:13:57.284Z,25.19
2024-03-19T07:14:57.284Z,25.22
2024-03-19T07:15:57.278Z,25.21
2024-03-19T07:16:57.288Z,25.21
2024-03-19T07:17:57.289Z,25.23
2024-03-19T07:18:57.295Z,25.23
2024-03-19T07:19:57.362Z,25.23
2024-03-19T07:20:57.474Z,25.22
2024-03-19T07:21:57.566Z,25.23
2024-03-19T07:22:57.669Z,25.26
2024-03-19T07:23:57.753Z,25.28
2024-03-19T07:24:57.857Z,25.29
2024-03-19T07:25:57.958Z,25.29
2024-03-19T07:27:00.338Z,25.32
2024-03-19T07:27:58.043Z,25.32
2024-03-19T07:28:58.044Z,25.30
2024-03-19T07:29:58.044Z,25.35
2024-03-19T07:30:58.052Z,25.33
2024-03-19T07:31:58.044Z,25.35
2024-03-19T07:33:00.063Z,25.33
2024-03-19T07:33:58.056Z,25.33
2024-03-19T07:34:58.057Z,25.36
2024-03-19T07:35:58.040Z,25.35
2024-03-19T07:36:58.082Z,25.35
2024-03-19T07:37:58.186Z,25.33
2024-03-19T07:38:58.219Z,25.37
2024-03-19T07:39:58.232Z,25.36
2024-03-19T07:40:58.297Z,25.33
2024-03-19T07:41:58.364Z,25.33
2024-03-19T07:42:58.387Z,25.33
2024-03-19T07:44:00.461Z,25.35
2024-03-19T07:44:58.469Z,25.36
2024-03-19T07:45:58.588Z,25.35
2024-03-19T07:46:58.546Z,25.36
2024-03-19T07:47:58.605Z,25.37
2024-03-19T07:49:00.817Z,25.35
2024-03-19T07:49:58.679Z,25.35
2024-03-19T07:50:58.774Z,25.36
2024-03-19T07:51:58.857Z,25.35
2024-03-19T07:52:58.971Z,25.35
2024-03-19T07:53:59.102Z,25.36
2024-03-19T07:54:59.208Z,25.36
2024-03-19T07:55:59.243Z,25.36
2024-03-19T07:56:59.374Z,25.36
2024-03-19T07:57:59.435Z,25.35
2024-03-19T07:58:59.541Z,25.37
2024-03-19T07:59:59.684Z,25.39
2024-03-19T08:00:59.754Z,25.37
2024-03-19T08:01:59.822Z,25.39
2024-03-19T08:02:59.957Z,25.37
2024-03-19T08:04:05.521Z,25.37
2024-03-19T08:05:01.058Z,25.39
2024-03-19T08:06:00.065Z,25.37
2024-03-19T08:07:00.042Z,25.42
2024-03-19T08:08:00.053Z,25.39
2024-03-19T08:09:00.057Z,25.39
2024-03-19T08:10:00.078Z,25.39
2024-03-19T08:11:00.053Z,25.42
2024-03-19T08:12:00.151Z,25.42
2024-03-19T08:13:00.128Z,25.40
2024-03-19T08:14:00.230Z,25.42
2024-03-19T08:15:00.310Z,25.43
2024-03-19T08:16:00.459Z,25.43
2024-03-19T08:17:00.521Z,25.43
2024-03-19T08:18:00.632Z,25.43
2024-03-19T08:19:00.741Z,25.46
2024-03-19T08:20:00.841Z,25.42
2024-03-19T08:21:00.929Z,25.47
2024-03-19T08:22:01.036Z,25.44
2024-03-19T08:23:01.156Z,25.47
2024-03-19T08:24:01.227Z,25.47
2024-03-19T08:25:01.323Z,25.47
2024-03-19T08:26:01.489Z,25.47
2024-03-19T08:27:01.508Z,25.49
2024-03-19T08:28:01.612Z,25.50
2024-03-19T08:29:01.701Z,25.49
2024-03-19T08:30:01.813Z,25.53
2024-03-19T08:31:01.878Z,25.49
2024-03-19T08:32:01.984Z,25.52
2024-03-19T08:33:02.094Z,25.52
2024-03-19T08:34:02.202Z,25.52
2024-03-19T08:35:02.311Z,25.54
2024-03-19T08:36:02.433Z,25.53
2024-03-19T08:37:02.551Z,25.56
2024-03-19T08:38:02.633Z,25.56
2024-03-19T08:39:02.770Z,25.54
2024-03-19T08:40:02.877Z,25.53
2024-03-19T08:41:02.933Z,25.56
2024-03-19T08:42:05.617Z,25.54
2024-03-19T08:43:03.027Z,25.56
2024-03-19T08:44:03.034Z,25.56
2024-03-19T08:45:03.039Z,25.54
2024-03-19T08:46:03.043Z,25.56
2024-03-19T08:47:03.044Z,25.53
2024-03-19T08:48:03.034Z,25.54
2024-03-19T08:49:03.031Z,25.57
2024-03-19T08:50:03.049Z,25.54
2024-03-19T08:51:03.050Z,25.57
2024-03-19T08:52:03.050Z,25.57
2024-03-19T08:53:03.049Z,25.57
2024-03-19T08:54:03.051Z,25.57
2024-03-19T08:55:03.038Z,25.57
2024-03-19T08:56:03.071Z,25.59
2024-03-19T08:57:03.053Z,25.56
2024-03-19T08:58:03.056Z,25.61
2024-03-19T08:59:03.058Z,25.57
2024-03-19T09:00:03.045Z,25.60
2024-03-19T09:01:03.050Z,25.60
2024-03-19T09:02:03.149Z,25.60
2024-03-19T09:03:03.072Z,25.60
2024-03-19T09:04:03.063Z,25.60
2024-03-19T09:05:03.096Z,25.59
2024-03-19T09:06:03.077Z,25.66
2024-03-19T09:07:03.084Z,25.64
2024-03-19T09:08:03.089Z,25.66
2024-03-19T09:09:03.150Z,25.67
2024-03-19T09:10:03.079Z,25.68
2024-03-19T09:11:03.086Z,25.67
2024-03-19T09:12:03.077Z,25.66
2024-03-19T09:13:03.082Z,25.67
2024-03-19T09:14:03.212Z,25.64
2024-03-19T09:15:03.142Z,25.66
2024-03-19T09:16:03.250Z,25.63
2024-03-19T09:17:03.362Z,25.64
2024-03-19T09:18:03.504Z,25.64
2024-03-19T09:19:03.535Z,25.66
2024-03-19T09:20:03.631Z,25.70
2024-03-19T09:21:03.722Z,25.70
2024-03-19T09:22:03.846Z,25.70
2024-03-19T09:23:03.945Z,25.73
2024-03-19T09:24:04.049Z,25.74
2024-03-19T09:25:06.804Z,25.70
2024-03-19T09:26:04.156Z,25.73
2024-03-19T09:27:04.134Z,25.74
2024-03-19T09:28:04.132Z,25.77
2024-03-19T09:29:04.228Z,25.77
2024-03-19T09:30:04.136Z,25.76
2024-03-19T09:31:04.139Z,25.78
2024-03-19T09:32:04.190Z,25.80
2024-03-19T09:33:04.142Z,25.78
2024-03-19T09:34:04.141Z,25.80
2024-03-19T09:35:04.140Z,25.80
2024-03-19T09:36:04.146Z,25.80
2024-03-19T09:37:04.152Z,25.83
2024-03-19T09:38:04.152Z,25.83
2024-03-19T09:39:04.130Z,25.81
2024-03-19T09:40:11.737Z,25.81
2024-03-19T09:41:11.718Z,25.84
2024-03-19T09:42:11.728Z,25.87
2024-03-19T09:43:11.728Z,25.84
2024-03-19T09:44:11.759Z,25.87
2024-03-19T09:45:11.740Z,25.85
2024-03-19T09:46:11.754Z,25.87
2024-03-19T09:47:11.742Z,25.88
2024-03-19T09:48:11.755Z,25.88
2024-03-19T09:49:11.790Z,25.88
2024-03-19T09:50:11.860Z,25.91
2024-03-19T09:51:11.955Z,25.89
2024-03-19T09:52:12.042Z,25.89
2024-03-19T09:53:12.136Z,25.92
2024-03-19T09:54:12.250Z,25.91
2024-03-19T09:55:12.311Z,25.92
2024-03-19T09:56:12.413Z,25.95
2024-03-19T09:57:12.488Z,25.95
2024-03-19T09:58:12.597Z,25.95
2024-03-19T09:59:12.697Z,25.96
2024-03-19T10:00:12.779Z,25.96
2024-03-19T10:01:12.858Z,25.98
2024-03-19T10:02:12.965Z,25.98
2024-03-19T10:03:13.050Z,25.98
2024-03-19T10:04:13.145Z,25.96
2024-03-19T10:05:13.238Z,25.95
2024-03-19T10:06:13.348Z,25.95
2024-03-19T10:07:13.447Z,25.95
2024-03-19T10:08:13.571Z,25.95
2024-03-19T10:09:13.696Z,25.96
2024-03-19T10:10:13.689Z,25.98
2024-03-19T10:11:13.745Z,25.94
2024-03-19T10:12:13.857Z,25.94
2024-03-19T10:13:13.931Z,25.95
2024-03-19T10:14:14.032Z,25.94
2024-03-19T10:15:14.124Z,25.91
2024-03-19T10:16:14.218Z,25.94
2024-03-19T10:17:14.315Z,25.94
2024-03-19T10:18:14.403Z,25.92
2024-03-19T10:19:14.494Z,25.92
2024-03-19T10:20:14.598Z,25.91
2024-03-19T10:21:14.673Z,25.91
2024-03-19T10:22:14.769Z,25.89
2024-03-19T10:23:14.863Z,25.88
2024-03-19T10:24:14.969Z,25.89
2024-03-19T10:25:15.042Z,25.88
2024-03-19T10:26:15.182Z,25.89
2024-03-19T10:27:15.244Z,25.89
2024-03-19T10:28:15.425Z,25.88
2024-03-19T10:29:15.416Z,25.87
2024-03-19T10:30:15.514Z,25.87
2024-03-19T10:31:15.611Z,25.84
2024-03-19T10:32:25.131Z,25.84
2024-03-19T10:33:16.712Z,25.87
2024-03-19T10:34:15.720Z,25.85
2024-03-19T10:35:15.845Z,25.81
2024-03-19T10:36:15.716Z,25.84
2024-03-19T10:37:15.732Z,25.84
2024-03-19T10:38:25.216Z,25.80
2024-03-19T10:39:17.845Z,25.81
2024-03-19T10:40:15.741Z,25.78
2024-03-19T10:41:15.748Z,25.81
2024-03-19T10:42:15.750Z,25.77
2024-03-19T10:43:15.761Z,25.78
2024-03-19T10:44:15.760Z,25.76
2024-03-19T10:45:15.739Z,25.77
2024-03-19T10:46:15.777Z,25.76
2024-03-19T10:47:15.780Z,25.76
2024-03-19T10:48:15.839Z,25.76
2024-03-19T10:49:25.912Z,25.76
2024-03-19T10:50:15.858Z,25.73
2024-03-19T10:51:15.918Z,25.73
2024-03-19T10:52:15.859Z,25.71
2024-03-19T10:53:15.858Z,25.71
2024-03-19T10:54:15.855Z,25.71
2024-03-19T10:55:15.864Z,25.71
2024-03-19T10:56:15.860Z,25.70
2024-03-19T10:57:15.854Z,25.67
2024-03-19T10:58:15.885Z,25.68
2024-03-19T10:59:20.906Z,25.68
2024-03-19T11:00:15.875Z,25.68
2024-03-19T11:01:15.880Z,25.67
2024-03-19T11:02:15.887Z,25.66
2024-03-19T11:03:15.893Z,25.68
2024-03-19T11:04:15.896Z,25.66
2024-03-19T11:05:15.903Z,25.66
2024-03-19T11:06:15.887Z,25.63
2024-03-19T11:07:15.980Z,25.63
2024-03-19T11:08:16.068Z,25.61
2024-03-19T11:09:16.185Z,25.63
2024-03-19T11:10:16.269Z,25.66
2024-03-19T11:11:16.358Z,25.64
2024-03-19T11:12:16.485Z,25.66
2024-03-19T11:13:16.579Z,25.66
2024-03-19T11:14:26.719Z,25.68
2024-03-19T11:15:16.707Z,25.68
2024-03-19T11:16:16.744Z,25.66
2024-03-19T11:17:16.711Z,25.64
2024-03-19T11:18:16.707Z,25.64
2024-03-19T11:19:16.678Z,25.66
2024-03-19T11:20:16.680Z,25.64
2024-03-19T11:21:16.678Z,25.61
2024-03-19T11:22:16.689Z,25.63
2024-03-19T11:23:16.698Z,25.61
2024-03-19T11:24:16.703Z,25.57
2024-03-19T11:25:16.710Z,25.59
2024-03-19T11:26:16.709Z,25.61
2024-03-19T11:27:16.717Z,25.59
2024-03-19T11:28:16.723Z,25.57
2024-03-19T11:29:16.716Z,25.59
2024-03-19T11:30:16.730Z,25.57
2024-03-19T11:31:16.705Z,25.56
2024-03-19T11:32:16.714Z,25.53
2024-03-19T11:33:16.708Z,25.54
2024-03-19T11:34:16.715Z,25.53
2024-03-19T11:35:16.722Z,25.54
2024-03-19T11:36:16.736Z,25.50
2024-03-19T11:37:16.733Z,25.50
2024-03-19T11:38:16.744Z,25.50
2024-03-19T11:39:16.749Z,25.49
2024-03-19T11:40:16.737Z,25.50
2024-03-19T11:41:27.153Z,25.50
2024-03-19T11:42:17.801Z,25.47
2024-03-19T11:43:16.787Z,25.49
2024-03-19T11:44:16.796Z,25.49
2024-03-19T11:45:16.798Z,25.46
2024-03-19T11:46:16.801Z,25.49
2024-03-19T11:47:16.812Z,25.49
2024-03-19T11:48:16.811Z,25.49
2024-03-19T11:49:16.817Z,25.44
2024-03-19T11:50:16.873Z,25.43
2024-03-19T11:51:16.933Z,25.43
2024-03-19T11:52:17.042Z,25.44
2024-03-19T11:53:17.153Z,25.44
2024-03-19T11:54:17.222Z,25.43
2024-03-19T11:55:17.322Z,25.46
2024-03-19T11:56:17.428Z,25.46
2024-03-19T11:57:17.528Z,25.40
2024-03-19T11:58:17.656Z,25.39
2024-03-19T11:59:17.712Z,25.42
2024-03-19T12:00:17.918Z,25.40
2024-03-19T12:01:17.935Z,25.42
2024-03-19T12:02:18.036Z,25.40
2024-03-19T12:03:18.141Z,25.39
2024-03-19T12:04:18.212Z,25.40
2024-03-19T12:05:18.306Z,25.37
2024-03-19T12:06:18.411Z,25.36
2024-03-19T12:07:18.523Z,25.39
2024-03-19T12:08:18.582Z,25.42
2024-03-19T12:09:23.664Z,25.36
2024-03-19T12:10:18.664Z,25.37
2024-03-19T12:11:18.655Z,25.39
2024-03-19T12:12:18.698Z,25.37
2024-03-19T12:13:18.718Z,25.35
2024-03-19T12:14:18.684Z,25.36
2024-03-19T12:15:18.676Z,25.35
2024-03-19T12:16:18.683Z,25.36
2024-03-19T12:17:18.740Z,25.36
2024-03-19T12:18:18.857Z,25.35
2024-03-19T12:19:18.917Z,25.37
2024-03-19T12:20:19.016Z,25.36
2024-03-19T12:21:19.097Z,25.39
2024-03-19T12:22:20.133Z,25.36
2024-03-19T12:23:19.195Z,25.39
2024-03-19T12:24:29.302Z,25.42
2024-03-19T12:25:19.263Z,25.40
2024-03-19T12:26:19.250Z,25.39
2024-03-19T12:27:19.265Z,25.43
2024-03-19T12:28:20.151Z,25.43
2024-03-19T12:29:19.252Z,25.43
2024-03-19T12:30:19.245Z,25.44
2024-03-19T12:31:19.254Z,25.44
2024-03-19T12:32:19.311Z,25.47
2024-03-19T12:33:19.267Z,25.49
2024-03-19T12:34:19.268Z,25.52
2024-03-19T12:35:19.289Z,25.50
2024-03-19T12:36:19.302Z,25.53
2024-03-19T12:37:19.301Z,25.53
2024-03-19T12:38:19.292Z,25.56
2024-03-19T12:39:19.309Z,25.57
2024-03-19T12:40:19.311Z,25.60
2024-03-19T12:41:19.301Z,25.57
2024-03-19T12:42:19.321Z,25.59
2024-03-19T12:43:19.312Z,25.63
2024-03-19T12:44:19.329Z,25.61
2024-03-19T12:45:19.325Z,25.63
2024-03-19T12:46:19.354Z,25.63
2024-03-19T12:47:19.405Z,25.67
2024-03-19T12:48:19.306Z,25.67
2024-03-19T12:49:19.470Z,25.66
2024-03-19T12:50:19.434Z,25.66
2024-03-19T12:51:19.538Z,25.68
2024-03-19T12:52:19.639Z,25.71
2024-03-19T12:53:19.721Z,25.68
2024-03-19T12:54:20.026Z,25.67